Time;durP1;ratioP1;P1;durP2;ratioP2;P2;SDS_P1;SDS_P2;PMS_P1;PMS_P2;Temp;Humidity;BMP_temperature;BMP_pressure;BME280_temperature;BME280_humidity;BME280_pressure;Samples;Min_cycle;Max_cycle;Signal;HPM_P1;HPM_P2
2022/01/24 00:00:30;;;;;;;35.22;26.90;;;;;;;-3.60;100.00;100717.47;2091178;28;20194;-72
2022/01/24 00:01:37;;;;;;;36.42;26.35;;;;;;;-3.60;100.00;100727.91;2091568;28;20220;-73
2022/01/24 00:02:41;;;;;;;36.55;25.45;;;;;;;-3.61;100.00;100721.06;2091004;28;20240;-72
2022/01/24 00:03:56;;;;;;;34.67;25.85;;;;;;;-3.64;100.00;100718.78;2082964;28;20563;-71
2022/01/24 00:05:00;;;;;;;36.70;25.42;;;;;;;-3.66;100.00;100712.91;2091297;28;20187;-72
2022/01/24 00:06:03;;;;;;;34.40;26.25;;;;;;;-3.68;100.00;100720.91;2091053;28;20198;-72
2022/01/24 00:07:05;;;;;;;38.85;26.73;;;;;;;-3.70;100.00;100715.03;2091044;28;20203;-72
2022/01/24 00:08:10;;;;;;;38.42;27.30;;;;;;;-3.74;100.00;100719.75;2082676;28;20222;-72
2022/01/24 00:09:15;;;;;;;40.83;27.77;;;;;;;-3.75;100.00;100714.69;2090973;28;20197;-72
2022/01/24 00:10:22;;;;;;;36.92;27.23;;;;;;;-3.78;100.00;100718.44;2090849;28;20210;-71
2022/01/24 00:11:39;;;;;;;33.42;26.50;;;;;;;-3.80;100.00;100716.97;2091148;28;20182;-72
2022/01/24 00:12:51;;;;;;;37.05;26.50;;;;;;;-3.85;100.00;100720.06;2091578;28;20607;-72
2022/01/24 00:15:47;;;;;;;35.25;26.33;;;;;;;-3.94;100.00;100728.03;2091642;28;20222;-72
2022/01/24 00:17:05;;;;;;;39.22;26.02;;;;;;;-3.99;100.00;100731.13;2090942;28;20210;-72
2022/01/24 00:18:12;;;;;;;36.17;25.63;;;;;;;-4.02;100.00;100721.00;2084567;28;20203;-73
2022/01/24 00:27:37;;;;;;;36.90;26.80;;;;;;;-4.33;100.00;100732.03;2091230;28;20181;-72
2022/01/24 00:28:39;;;;;;;36.22;26.73;;;;;;;-4.40;100.00;100725.00;2091463;28;20195;-72
2022/01/24 00:29:45;;;;;;;38.80;26.58;;;;;;;-4.44;100.00;100728.88;2091550;28;20282;-72
2022/01/24 00:30:51;;;;;;;37.20;26.88;;;;;;;-4.49;100.00;100724.16;2091476;28;20643;-73
2022/01/24 00:31:57;;;;;;;35.95;26.65;;;;;;;-4.50;100.00;100727.72;2091384;28;20201;-72
2022/01/24 00:33:01;;;;;;;39.25;26.92;;;;;;;-4.56;100.00;100726.56;2091331;28;20665;-72
2022/01/24 00:34:03;;;;;;;33.08;26.15;;;;;;;-4.63;100.00;100717.72;2090999;28;20561;-72
2022/01/24 00:35:07;;;;;;;35.25;26.42;;;;;;;-4.68;100.00;100721.78;2090738;28;20198;-72
2022/01/24 00:36:09;;;;;;;35.70;26.80;;;;;;;-4.73;100.00;100718.84;2090861;28;20194;-72
2022/01/24 00:37:15;;;;;;;37.03;27.45;;;;;;;-4.78;100.00;100708.88;2090731;28;20231;-72
2022/01/24 00:38:18;;;;;;;34.47;27.00;;;;;;;-4.79;100.00;100722.88;2090715;28;20225;-72
2022/01/24 00:39:22;;;;;;;39.83;26.85;;;;;;;-4.82;100.00;100717.16;2091295;28;20692;-72
2022/01/24 00:40:26;;;;;;;35.53;26.92;;;;;;;-4.85;100.00;100720.91;2090696;28;20269;-72
2022/01/24 00:41:31;;;;;;;39.58;27.00;;;;;;;-4.88;100.00;100711.59;2082575;28;20204;-73
2022/01/24 00:42:43;;;;;;;36.25;26.58;;;;;;;-4.91;100.00;100716.31;2090710;28;20179;-72
2022/01/24 00:44:05;;;;;;;40.65;27.35;;;;;;;-4.94;100.00;100719.22;2091527;28;20179;-72
2022/01/24 00:45:16;;;;;;;35.92;26.75;;;;;;;-4.99;100.00;100711.88;2091519;28;20230;-73
2022/01/24 00:46:32;;;;;;;37.85;26.60;;;;;;;-5.01;100.00;100715.59;2090534;28;20294;-73
2022/01/24 00:48:07;;;;;;;37.88;27.20;;;;;;;-5.06;100.00;100713.44;2084917;28;20207;-73
2022/01/24 00:49:23;;;;;;;37.05;27.42;;;;;;;-5.06;100.00;100718.66;2086732;28;20285;-73
2022/01/24 00:53:29;;;;;;;39.63;27.13;;;;;;;-5.16;100.00;100707.53;2091013;28;20667;-73
2022/01/24 00:54:43;;;;;;;38.30;26.90;;;;;;;-5.17;100.00;100716.31;2091481;28;20210;-73
2022/01/24 00:55:48;;;;;;;37.85;27.30;;;;;;;-5.20;100.00;100716.63;2090876;28;20692;-73
2022/01/24 00:56:52;;;;;;;38.28;27.73;;;;;;;-5.23;100.00;100711.72;2090630;28;20215;-73
2022/01/24 00:57:58;;;;;;;37.00;27.45;;;;;;;-5.27;100.00;100716.41;2090395;28;20218;-73
2022/01/24 00:59:00;;;;;;;43.13;27.95;;;;;;;-5.29;100.00;100710.56;2090922;28;20520;-73
2022/01/24 01:00:04;;;;;;;43.92;29.67;;;;;;;-5.29;100.00;100712.34;2091192;28;20187;-73
2022/01/24 01:01:07;;;;;;;41.15;28.08;;;;;;;-5.32;100.00;100710.84;2091085;28;20277;-72
2022/01/24 01:02:10;;;;;;;40.80;28.60;;;;;;;-5.35;100.00;100713.75;2091078;28;20195;-73
2022/01/24 01:03:14;;;;;;;42.53;28.48;;;;;;;-5.38;100.00;100714.06;2091126;28;20195;-73
2022/01/24 01:04:20;;;;;;;45.22;29.40;;;;;;;-5.39;100.00;100707.22;2091145;28;20230;-73
2022/01/24 01:05:36;;;;;;;41.97;28.60;;;;;;;-5.42;100.00;100704.91;2091144;28;20271;-73
2022/01/24 01:06:43;;;;;;;43.10;28.05;;;;;;;-5.44;100.00;100706.88;2090948;28;20226;-73
2022/01/24 01:07:55;;;;;;;38.75;28.05;;;;;;;-5.48;100.00;100713.31;2091223;28;20184;-72
2022/01/24 01:18:31;;;;;;;45.75;30.27;;;;;;;-5.69;100.00;100711.06;2091193;28;20201;-72
2022/01/24 01:19:36;;;;;;;43.92;31.05;;;;;;;-5.70;100.00;100712.84;2091019;28;20693;-73
2022/01/24 01:20:53;;;;;;;46.45;29.98;;;;;;;-5.73;100.00;100707.94;2090964;28;20202;-73
2022/01/24 01:22:01;;;;;;;44.35;31.80;;;;;;;-5.76;100.00;100716.03;2091062;28;20221;-73
2022/01/24 01:23:03;;;;;;;46.75;32.50;;;;;;;-5.77;100.00;100714.41;2091004;28;20175;-73
2022/01/24 01:24:07;;;;;;;45.67;31.58;;;;;;;-5.78;100.00;100717.16;2090484;28;20669;-73
2022/01/24 01:25:14;;;;;;;46.92;31.48;;;;;;;-5.79;100.00;100711.13;2082750;28;20203;-73
2022/01/24 01:26:27;;;;;;;49.67;31.73;;;;;;;-5.81;100.00;100709.66;2090386;28;20195;-73
2022/01/24 01:27:38;;;;;;;54.72;32.47;;;;;;;-5.78;100.00;100714.56;2091092;28;20244;-73
2022/01/24 01:28:44;;;;;;;49.58;32.20;;;;;;;-5.81;100.00;100704.47;2090863;28;20229;-73
2022/01/24 01:29:56;;;;;;;49.65;32.33;;;;;;;-5.82;100.00;100711.44;2090935;28;20645;-73
2022/01/24 01:31:03;;;;;;;47.50;30.70;;;;;;;-5.84;100.00;100708.16;2091180;28;20633;-73
2022/01/24 01:32:15;;;;;;;49.75;32.15;;;;;;;-5.85;100.00;100710.91;2091094;28;20183;-73
2022/01/24 01:33:26;;;;;;;50.20;31.88;;;;;;;-5.86;100.00;100704.09;2091180;28;20184;-73
2022/01/24 01:34:53;;;;;;;48.25;32.60;;;;;;;-5.87;100.00;100711.06;2090184;28;20195;-74
2022/01/24 01:36:07;;;;;;;49.47;31.67;;;;;;;-5.87;100.00;100712.84;2090005;28;20267;-72
2022/01/24 01:37:30;;;;;;;51.38;32.05;;;;;;;-5.87;100.00;100723.25;2089897;28;20238;-73
2022/01/24 01:38:51;;;;;;;51.20;32.50;;;;;;;-5.88;100.00;100712.03;2084862;28;20202;-73
2022/01/24 01:40:40;;;;;;;48.53;30.42;;;;;;;-5.91;100.00;100711.53;2090444;28;20278;-74
2022/01/24 01:52:50;;;;;;;53.22;32.67;;;;;;;-6.11;100.00;100718.66;2090865;28;20190;-74
2022/01/24 01:54:13;;;;;;;50.53;31.23;;;;;;;-6.17;100.00;100712.25;2090733;28;20201;-73
2022/01/24 01:55:35;;;;;;;48.75;29.92;;;;;;;-6.17;100.00;100711.44;2090355;28;20178;-73
2022/01/24 01:56:40;;;;;;;50.55;30.20;;;;;;;-6.21;100.00;100721.31;2090937;28;20191;-73
2022/01/24 01:57:46;;;;;;;45.28;30.55;;;;;;;-6.27;100.00;100707.13;2090669;28;20209;-73
2022/01/24 01:58:49;;;;;;;52.83;31.10;;;;;;;-6.26;100.00;100708.75;2090900;28;20197;-73
2022/01/24 01:59:54;;;;;;;51.47;31.48;;;;;;;-6.28;100.00;100713.28;2090856;28;20194;-73
2022/01/24 02:00:58;;;;;;;43.42;30.25;;;;;;;-6.30;100.00;100712.63;2089885;28;20231;-73
2022/01/24 02:02:02;;;;;;;50.03;30.55;;;;;;;-6.32;100.00;100724.13;2090139;28;20190;-73
2022/01/24 02:03:06;;;;;;;51.83;31.40;;;;;;;-6.36;100.00;100718.38;2090631;28;20244;-73
2022/01/24 02:04:08;;;;;;;49.47;31.88;;;;;;;-6.40;100.00;100717.06;2090626;28;20274;-73
2022/01/24 02:05:12;;;;;;;47.33;31.85;;;;;;;-6.43;100.00;100726.91;2090659;28;20226;-73
2022/01/24 02:06:18;;;;;;;43.40;28.85;;;;;;;-6.48;100.00;100713.56;2089464;28;20248;-73
2022/01/24 02:07:22;;;;;;;47.50;29.70;;;;;;;-6.49;100.00;100723.13;2082768;28;20245;-74
2022/01/24 02:08:29;;;;;;;48.42;30.48;;;;;;;-6.53;100.00;100721.75;2089969;28;20187;-73
2022/01/24 02:09:33;;;;;;;49.33;30.88;;;;;;;-6.55;100.00;100728.88;2090196;28;20285;-73
2022/01/24 02:10:40;;;;;;;44.58;29.58;;;;;;;-6.56;100.00;100727.25;2090036;28;20658;-74
2022/01/24 02:11:54;;;;;;;46.63;31.02;;;;;;;-6.61;100.00;100729.44;2089952;28;20203;-74
2022/01/24 02:12:56;;;;;;;48.13;31.42;;;;;;;-6.60;100.00;100728.50;2083548;28;20600;-74
2022/01/24 02:14:04;;;;;;;52.05;32.00;;;;;;;-6.63;100.00;100721.81;2090024;28;20578;-73
2022/01/24 02:15:08;;;;;;;48.53;30.83;;;;;;;-6.64;100.00;100727.97;2090852;28;20202;-73
2022/01/24 02:16:19;;;;;;;51.10;29.88;;;;;;;-6.66;100.00;100724.69;2090420;28;20353;-73
2022/01/24 02:17:30;;;;;;;47.38;29.75;;;;;;;-6.68;100.00;100718.84;2090608;28;20175;-73
2022/01/24 02:18:38;;;;;;;52.67;32.10;;;;;;;-6.69;100.00;100721.56;2090562;28;20240;-73
2022/01/24 02:20:03;;;;;;;50.15;31.10;;;;;;;-6.71;100.00;100715.69;2090716;28;20573;-73
2022/01/24 02:21:11;;;;;;;46.38;30.13;;;;;;;-6.70;100.00;100719.91;2089947;28;20194;-73
2022/01/24 02:22:41;;;;;;;46.80;31.35;;;;;;;-6.70;100.00;100719.91;2090592;28;20698;-74
2022/01/24 02:23:49;;;;;;;52.85;31.65;;;;;;;-6.71;100.00;100718.28;2089845;28;20198;-73
2022/01/24 02:24:55;;;;;;;47.10;30.45;;;;;;;-6.70;100.00;100719.91;2090103;28;20677;-73
2022/01/24 02:26:01;;;;;;;47.80;31.42;;;;;;;-6.70;100.00;100722.50;2090807;28;20182;-74
2022/01/24 02:27:04;;;;;;;52.67;31.88;;;;;;;-6.72;100.00;100721.84;2089917;28;20198;-73
2022/01/24 02:28:11;;;;;;;50.15;32.22;;;;;;;-6.70;100.00;100727.72;2081918;28;20266;-74
2022/01/24 02:29:25;;;;;;;46.55;32.42;;;;;;;-6.73;100.00;100715.03;2082059;28;20211;-73
2022/01/24 02:31:48;;;;;;;51.65;32.10;;;;;;;-6.71;100.00;100723.47;2089644;28;20195;-74
2022/01/24 02:32:51;;;;;;;46.85;32.63;;;;;;;-6.73;100.00;100720.22;2090592;28;20537;-74
2022/01/24 02:33:56;;;;;;;54.33;33.70;;;;;;;-6.74;100.00;100729.78;2090469;28;20551;-75
2022/01/24 02:35:01;;;;;;;62.35;33.20;;;;;;;-6.75;100.00;100727.34;2090395;28;20278;-73
2022/01/24 02:36:03;;;;;;;52.75;32.50;;;;;;;-6.76;100.00;100729.13;2090035;28;20256;-73
2022/01/24 02:37:10;;;;;;;46.85;32.08;;;;;;;-6.77;100.00;100729.25;2090306;28;20685;-73
2022/01/24 02:38:28;;;;;;;54.33;32.67;;;;;;;-6.80;100.00;100729.53;2090101;28;20294;-74
2022/01/24 02:39:45;;;;;;;55.88;33.60;;;;;;;-6.81;100.00;100727.91;2083718;28;20284;-74
2022/01/24 02:46:02;;;;;;;50.40;31.65;;;;;;;-6.84;100.00;100729.81;2090270;28;20167;-73
2022/01/24 02:49:01;;;;;;;54.50;32.05;;;;;;;-6.96;100.00;100730.94;2089726;28;20281;-73
2022/01/24 02:50:04;;;;;;;51.28;32.03;;;;;;;-6.96;100.00;100732.72;2089853;28;20194;-73
2022/01/24 02:51:26;;;;;;;50.53;32.90;;;;;;;-6.97;100.00;100737.09;2089819;28;20283;-73
2022/01/24 02:52:28;;;;;;;52.85;33.03;;;;;;;-7.01;100.00;100730.56;2090569;28;20202;-73
2022/01/24 02:53:34;;;;;;;51.15;32.97;;;;;;;-7.01;100.00;100733.16;2090552;28;20198;-73
2022/01/24 02:54:35;;;;;;;57.05;34.25;;;;;;;-7.03;100.00;100726.47;2090121;28;20253;-73
2022/01/24 02:55:41;;;;;;;48.58;31.88;;;;;;;-7.06;100.00;100734.53;2081362;28;20290;-73
2022/01/24 02:56:47;;;;;;;52.65;32.63;;;;;;;-7.07;100.00;100731.13;2089827;28;20221;-73
2022/01/24 02:57:49;;;;;;;54.30;33.97;;;;;;;-7.07;100.00;100736.31;2090374;28;20714;-74
2022/01/24 02:58:56;;;;;;;55.75;33.75;;;;;;;-7.07;100.00;100736.31;2090301;28;20198;-74
2022/01/24 03:00:01;;;;;;;52.50;32.78;;;;;;;-7.09;100.00;100738.22;2090297;28;20608;-73
2022/01/24 03:01:07;;;;;;;53.22;32.55;;;;;;;-7.09;100.00;100738.22;2090375;28;20211;-73
2022/01/24 03:02:11;;;;;;;51.83;33.17;;;;;;;-7.07;100.00;100735.47;2090588;28;20194;-73
2022/01/24 03:03:16;;;;;;;55.28;33.92;;;;;;;-7.07;100.00;100741.50;2090318;28;20266;-73
2022/01/24 03:04:20;;;;;;;52.83;32.70;;;;;;;-7.07;100.00;100738.91;2089584;28;20226;-73
2022/01/24 03:05:24;;;;;;;57.15;33.20;;;;;;;-7.06;100.00;100737.94;2089717;28;20282;-74
2022/01/24 03:06:27;;;;;;;53.55;33.45;;;;;;;-7.07;100.00;100741.50;2090957;28;20688;-73
2022/01/24 03:07:30;;;;;;;57.13;34.03;;;;;;;-7.05;100.00;100741.34;2092058;28;20191;-73
2022/01/24 03:08:40;;;;;;;52.85;33.45;;;;;;;-7.08;100.00;100732.06;2092066;28;20186;-73
2022/01/24 03:09:48;;;;;;;55.80;34.08;;;;;;;-7.06;100.00;100737.13;2091283;28;20203;-73
2022/01/24 03:10:53;;;;;;;54.47;33.05;;;;;;;-7.08;100.00;100737.25;2091502;28;20198;-73
2022/01/24 03:12:03;;;;;;;54.72;33.72;;;;;;;-7.09;100.00;100740.00;2092047;28;20195;-74
2022/01/24 03:13:11;;;;;;;53.08;32.85;;;;;;;-7.11;100.00;100745.34;2091346;28;20572;-74
2022/01/24 03:14:14;;;;;;;54.03;34.30;;;;;;;-7.15;100.00;100739.59;2084097;28;20238;-73
2022/01/24 03:15:15;;;;;;;53.10;33.58;;;;;;;-7.17;100.00;100740.69;2083491;28;20204;-73
2022/01/24 03:16:18;;;;;;;56.42;33.17;;;;;;;-7.18;100.00;100741.66;2083227;28;20220;-73
2022/01/24 03:17:21;;;;;;;58.03;33.67;;;;;;;-7.18;100.00;100736.47;2091568;28;20241;-75
2022/01/24 03:18:25;;;;;;;53.97;33.05;;;;;;;-7.20;100.00;100741.00;2091942;28;20191;-73
2022/01/24 03:19:27;;;;;;;60.35;33.58;;;;;;;-7.20;100.00;100743.59;2091886;28;20578;-74
2022/01/24 03:20:30;;;;;;;58.13;35.42;;;;;;;-7.21;100.00;100742.75;2091810;28;20565;-73
2022/01/24 03:21:33;;;;;;;53.85;33.55;;;;;;;-7.21;100.00;100749.69;2091505;28;20230;-73
2022/01/24 03:22:37;;;;;;;54.55;34.05;;;;;;;-7.24;100.00;100742.22;2092183;28;20198;-73
2022/01/24 03:23:45;;;;;;;56.10;34.15;;;;;;;-7.28;100.00;100746.88;2091933;28;20194;-73
2022/01/24 03:24:48;;;;;;;60.75;34.13;;;;;;;-7.29;100.00;100754.78;2091298;28;20209;-74
2022/01/24 03:25:55;;;;;;;57.72;33.67;;;;;;;-7.31;100.00;100748.91;2091270;28;20194;-73
2022/01/24 03:26:59;;;;;;;55.58;32.60;;;;;;;-7.34;100.00;100746.59;2091537;28;20644;-73
2022/01/24 03:28:03;;;;;;;56.53;33.30;;;;;;;-7.38;100.00;100747.81;2090858;28;20220;-73
2022/01/24 03:29:04;;;;;;;61.25;34.65;;;;;;;-7.44;100.00;100747.44;2091182;28;20205;-73
2022/01/24 03:30:10;;;;;;;55.80;34.00;;;;;;;-7.43;100.00;100749.06;2091328;28;20684;-73
2022/01/24 03:31:13;;;;;;;61.28;33.92;;;;;;;-7.46;100.00;100744.16;2091785;28;20665;-73
2022/01/24 03:32:18;;;;;;;56.92;35.15;;;;;;;-7.49;100.00;100749.59;2091767;28;20278;-73
2022/01/24 03:33:20;;;;;;;55.70;34.97;;;;;;;-7.53;100.00;100747.44;2091272;28;20294;-74
2022/01/24 03:34:23;;;;;;;50.90;33.05;;;;;;;-7.56;100.00;100743.31;2091213;28;20195;-73
2022/01/24 03:35:25;;;;;;;52.72;33.63;;;;;;;-7.57;100.00;100746.88;2092064;28;20269;-73
2022/01/24 03:36:28;;;;;;;51.67;33.00;;;;;;;-7.60;100.00;100746.34;2091391;28;20762;-73
2022/01/24 03:37:32;;;;;;;55.53;33.30;;;;;;;-7.67;100.00;100740.88;2091634;28;20727;-73
2022/01/24 03:38:38;;;;;;;46.85;32.50;;;;;;;-7.70;100.00;100746.34;2091199;28;20620;-74
2022/01/24 03:39:43;;;;;;;52.85;32.90;;;;;;;-7.78;100.00;100748.78;2091840;28;20687;-73
2022/01/24 03:40:47;;;;;;;53.63;32.47;;;;;;;-7.82;100.00;100755.19;2091901;28;20191;-73
2022/01/24 03:41:50;;;;;;;54.60;32.75;;;;;;;-7.86;100.00;100751.25;2091807;28;20202;-73
2022/01/24 03:42:56;;;;;;;50.88;31.58;;;;;;;-7.89;100.00;100757.53;2091785;28;20187;-73
2022/01/24 03:44:03;;;;;;;52.63;31.55;;;;;;;-7.96;100.00;100759.00;2091767;28;20195;-73
2022/01/24 03:45:08;;;;;;;52.95;31.58;;;;;;;-8.01;100.00;100756.00;2092016;28;20171;-73
2022/01/24 03:46:13;;;;;;;58.80;32.92;;;;;;;-8.04;100.00;100758.84;2091739;28;20199;-74
2022/01/24 03:47:40;;;;;;;50.85;31.17;;;;;;;-8.07;100.00;100756.53;2091316;28;20210;-73
2022/01/24 03:48:46;;;;;;;50.20;30.67;;;;;;;-8.10;100.00;100759.38;2091409;28;20187;-73
2022/01/24 03:50:00;;;;;;;52.00;31.08;;;;;;;-8.13;100.00;100760.47;2091122;28;20626;-74
2022/01/24 03:51:02;;;;;;;55.42;33.47;;;;;;;-8.16;100.00;100765.13;2090783;28;20174;-73
2022/01/24 03:52:06;;;;;;;56.47;34.67;;;;;;;-8.21;100.00;100762.91;2091694;28;20542;-73
2022/01/24 03:53:09;;;;;;;47.55;31.60;;;;;;;-8.25;100.00;100771.91;2091161;28;20352;-74
2022/01/24 03:54:15;;;;;;;52.97;32.35;;;;;;;-8.25;100.00;100771.91;2091170;28;20277;-73
2022/01/24 03:55:17;;;;;;;51.03;31.73;;;;;;;-8.28;100.00;100772.16;2091268;28;20218;-73
2022/01/24 03:56:21;;;;;;;57.78;34.58;;;;;;;-8.28;100.00;100777.31;2091222;28;20276;-73
2022/01/24 03:57:24;;;;;;;55.28;34.33;;;;;;;-8.28;100.00;100782.50;2090990;28;20689;-73
2022/01/24 03:58:28;;;;;;;57.10;35.20;;;;;;;-8.29;100.00;100775.69;2083067;28;20210;-74
2022/01/24 03:59:31;;;;;;;61.10;34.92;;;;;;;-8.30;100.00;100779.22;2083296;28;20219;-73
2022/01/24 04:00:37;;;;;;;60.10;37.42;;;;;;;-8.31;100.00;100782.78;2091110;28;20198;-73
2022/01/24 04:01:39;;;;;;;65.85;36.10;;;;;;;-8.33;100.00;100784.69;2091594;28;20572;-73
2022/01/24 04:02:41;;;;;;;60.53;36.25;;;;;;;-8.34;100.00;100788.19;2091551;28;20191;-73
2022/01/24 04:03:45;;;;;;;54.97;35.60;;;;;;;-8.35;100.00;100792.59;2091732;28;20214;-73
2022/01/24 04:04:47;;;;;;;61.33;35.75;;;;;;;-8.38;100.00;100784.28;2091624;28;20246;-73
2022/01/24 04:05:56;;;;;;;51.40;34.88;;;;;;;-8.39;100.00;100782.66;2091270;28;20203;-73
2022/01/24 04:06:59;;;;;;;58.72;35.40;;;;;;;-8.45;100.00;100786.56;2083419;28;20309;-73
2022/01/24 04:08:03;;;;;;;59.70;34.88;;;;;;;-8.46;100.00;100784.09;2091104;28;20195;-73
2022/01/24 04:09:06;;;;;;;55.70;34.17;;;;;;;-8.48;100.00;100783.44;2090872;28;20210;-73
2022/01/24 04:10:09;;;;;;;58.22;34.97;;;;;;;-8.51;100.00;100783.66;2091210;28;20198;-73
2022/01/24 04:11:14;;;;;;;56.05;35.28;;;;;;;-8.55;100.00;100776.19;2090814;28;20203;-73
2022/01/24 04:12:16;;;;;;;58.88;34.75;;;;;;;-8.57;100.00;100778.09;2090971;28;20555;-73
2022/01/24 04:13:28;;;;;;;64.53;36.58;;;;;;;-8.58;100.00;100780.81;2091152;28;20217;-73
2022/01/24 04:14:37;;;;;;;65.00;36.80;;;;;;;-8.59;100.00;100785.16;2090996;28;20220;-73
2022/01/24 04:15:47;;;;;;;62.08;37.40;;;;;;;-8.60;100.00;100785.28;2091780;28;20262;-73
2022/01/24 04:17:05;;;;;;;55.60;34.08;;;;;;;-8.63;100.00;100781.19;2091668;28;20245;-73
2022/01/24 04:21:18;;;;;;;64.53;35.72;;;;;;;-8.67;100.00;100787.56;2091269;28;20657;-73
2022/01/24 04:22:15;;;;;;;61.00;35.38;;;;;;;-8.71;100.00;100803.47;2091568;28;20191;-73
2022/01/24 04:23:19;;;;;;;61.25;35.83;;;;;;;-8.74;100.00;100799.38;2091099;28;20555;-73
2022/01/24 04:24:24;;;;;;;61.00;36.28;;;;;;;-8.78;100.00;100797.97;2090865;28;20191;-73
2022/01/24 04:25:27;;;;;;;57.15;36.00;;;;;;;-8.80;100.00;100791.31;2091687;28;20262;-73
2022/01/24 04:26:36;;;;;;;59.45;36.05;;;;;;;-8.80;100.00;100796.47;2090697;28;20195;-73
2022/01/24 04:27:41;;;;;;;69.32;36.75;;;;;;;-8.84;100.00;100796.75;2090851;28;20191;-73
2022/01/24 04:28:46;;;;;;;65.05;36.17;;;;;;;-8.81;100.00;100794.84;2091490;28;20214;-73
2022/01/24 04:29:49;;;;;;;67.60;37.22;;;;;;;-8.82;100.00;100793.22;2091451;28;20197;-73
2022/01/24 04:30:51;;;;;;;56.03;34.05;;;;;;;-8.84;100.00;100793.34;2090699;28;20203;-73
2022/01/24 04:31:52;;;;;;;56.72;35.83;;;;;;;-8.86;100.00;100797.81;2090835;28;20191;-73
2022/01/24 04:32:54;;;;;;;62.05;34.05;;;;;;;-8.89;100.00;100790.31;2091416;28;20187;-73
2022/01/24 04:33:59;;;;;;;61.67;36.00;;;;;;;-8.91;100.00;100792.22;2091596;28;20199;-73
2022/01/24 04:35:04;;;;;;;55.58;35.50;;;;;;;-8.91;100.00;100789.63;2090572;28;20199;-73
2022/01/24 04:36:08;;;;;;;54.03;35.17;;;;;;;-8.93;100.00;100791.53;2090089;28;20298;-73
2022/01/24 04:37:14;;;;;;;64.57;37.08;;;;;;;-8.96;100.00;100796.94;2090462;28;20230;-73
2022/01/24 04:38:17;;;;;;;63.13;35.17;;;;;;;-9.00;100.00;100791.22;2090787;28;20199;-73
2022/01/24 04:39:20;;;;;;;63.88;37.65;;;;;;;-9.01;100.00;100792.16;2091528;28;20186;-73
2022/01/24 04:40:25;;;;;;;65.88;36.67;;;;;;;-9.01;100.00;100804.25;2090691;28;20230;-73
2022/01/24 04:41:32;;;;;;;67.38;36.63;;;;;;;-9.04;100.00;100789.81;2082881;28;20279;-73
2022/01/24 04:42:49;;;;;;;57.85;35.38;;;;;;;-9.06;100.00;100794.28;2090805;28;20203;-73
2022/01/24 04:44:00;;;;;;;59.30;37.33;;;;;;;-9.09;100.00;100796.31;2091462;28;20190;-73
2022/01/24 04:45:30;;;;;;;59.95;34.95;;;;;;;-9.12;100.00;100787.06;2090925;28;20324;-73
2022/01/24 04:46:56;;;;;;;63.25;37.30;;;;;;;-9.16;100.00;100794.22;2091104;28;20667;-73
2022/01/24 04:50:59;;;;;;;63.33;37.10;;;;;;;-9.21;100.00;100796.41;2091308;28;20171;-73
2022/01/24 04:53:44;;;;;;;66.70;37.50;;;;;;;-9.23;100.00;100806.00;2088824;28;20613;-73
2022/01/24 04:54:46;;;;;;;69.95;37.75;;;;;;;-9.25;100.00;100813.06;2090621;28;20198;-73
2022/01/24 04:55:49;;;;;;;62.72;36.60;;;;;;;-9.24;100.00;100813.91;2082614;28;20200;-73
2022/01/24 04:56:53;;;;;;;61.38;36.67;;;;;;;-9.27;100.00;100809.81;2090498;28;20218;-73
2022/01/24 04:57:59;;;;;;;62.28;35.25;;;;;;;-9.28;100.00;100813.34;2091146;28;20214;-73
2022/01/24 04:59:00;;;;;;;61.83;34.55;;;;;;;-9.27;100.00;100814.97;2091189;28;20537;-73
2022/01/24 05:00:09;;;;;;;59.97;36.00;;;;;;;-9.29;100.00;100811.69;2091197;28;20237;-73
2022/01/24 05:01:12;;;;;;;70.88;37.22;;;;;;;-9.31;100.00;100808.41;2091298;28;20262;-73
2022/01/24 05:02:16;;;;;;;68.57;37.67;;;;;;;-9.32;100.00;100817.09;2091173;28;20206;-73
2022/01/24 05:03:18;;;;;;;72.72;37.47;;;;;;;-9.31;100.00;100813.56;2090440;28;20684;-73
2022/01/24 05:04:21;;;;;;;68.80;37.80;;;;;;;-9.33;100.00;100810.28;2082344;28;20250;-73
2022/01/24 05:05:25;;;;;;;67.28;37.65;;;;;;;-9.35;100.00;100811.38;2090542;28;20199;-73
2022/01/24 05:06:27;;;;;;;69.25;37.42;;;;;;;-9.39;100.00;100810.78;2090786;28;20273;-73
2022/01/24 05:07:31;;;;;;;68.72;36.25;;;;;;;-9.42;100.00;100811.03;2091116;28;20680;-73
2022/01/24 05:08:32;;;;;;;70.20;39.58;;;;;;;-9.48;100.00;100806.34;2090458;28;20202;-73
2022/01/24 05:09:41;;;;;;;66.68;40.20;;;;;;;-9.50;100.00;100814.25;2090526;28;20248;-74
2022/01/24 05:10:55;;;;;;;62.20;39.13;;;;;;;-9.53;100.00;100811.09;2091031;28;20195;-73
2022/01/24 05:12:04;;;;;;;65.93;37.55;;;;;;;-9.55;100.00;100813.00;2090969;28;20278;-73
2022/01/24 05:23:45;;;;;;;74.45;40.65;;;;;;;-9.80;100.00;100817.53;2090240;28;20201;-73
2022/01/24 05:24:47;;;;;;;81.93;41.28;;;;;;;-9.79;100.00;100810.59;2082449;28;20207;-74
2022/01/24 05:25:56;;;;;;;71.15;41.78;;;;;;;-9.81;100.00;100810.72;2090429;28;20198;-73
2022/01/24 05:26:59;;;;;;;72.40;39.05;;;;;;;-9.81;100.00;100815.88;2090215;28;20762;-73
2022/01/24 05:28:03;;;;;;;75.40;41.80;;;;;;;-9.80;100.00;100808.97;2082387;28;20207;-73
2022/01/24 05:29:06;;;;;;;84.47;43.03;;;;;;;-9.78;100.00;100810.47;2090185;28;20214;-73
2022/01/24 05:30:12;;;;;;;78.95;42.60;;;;;;;-9.76;100.00;100816.31;2091141;28;20549;-73
2022/01/24 05:31:15;;;;;;;78.45;42.63;;;;;;;-9.73;100.00;100808.34;2091202;28;20187;-73
2022/01/24 05:32:22;;;;;;;82.13;45.17;;;;;;;-9.66;100.00;100818.16;2090898;28;20191;-73
2022/01/24 05:33:26;;;;;;;85.50;45.47;;;;;;;-9.64;100.00;100821.44;2090890;28;20561;-73
2022/01/24 05:34:29;;;;;;;78.40;45.25;;;;;;;-9.60;100.00;100822.84;2090855;28;20646;-73
2022/01/24 05:35:35;;;;;;;89.80;45.40;;;;;;;-9.57;100.00;100822.59;2090433;28;20264;-73
2022/01/24 05:36:37;;;;;;;91.03;47.20;;;;;;;-9.56;100.00;100825.06;2089649;28;20226;-73
2022/01/24 05:37:43;;;;;;;91.47;46.65;;;;;;;-9.56;100.00;100831.97;2090228;28;20223;-73
2022/01/24 05:38:46;;;;;;;96.40;47.28;;;;;;;-9.56;100.00;100821.66;2090265;28;20199;-73
2022/01/24 05:39:51;;;;;;;86.47;46.55;;;;;;;-9.57;100.00;100817.44;2090949;28;20649;-73
2022/01/24 05:40:55;;;;;;;83.80;43.88;;;;;;;-9.55;100.00;100831.06;2090792;28;20673;-73
2022/01/24 05:41:59;;;;;;;99.97;47.67;;;;;;;-9.57;100.00;100827.75;2090893;28;20661;-73
2022/01/24 05:43:02;;;;;;;92.25;48.08;;;;;;;-9.56;100.00;100829.41;2090171;28;20199;-73
2022/01/24 05:44:06;;;;;;;93.97;47.05;;;;;;;-9.59;100.00;100832.25;2090414;28;20199;-73
2022/01/24 05:45:13;;;;;;;91.75;48.05;;;;;;;-9.60;100.00;100831.44;2090797;28;20684;-73
2022/01/24 05:46:18;;;;;;;91.90;44.80;;;;;;;-9.57;100.00;100830.34;2091066;28;20171;-73
2022/01/24 05:47:25;;;;;;;83.85;44.33;;;;;;;-9.59;100.00;100830.47;2090498;28;20264;-73
2022/01/24 05:48:27;;;;;;;90.93;45.25;;;;;;;-9.59;100.00;100832.25;2090301;28;20218;-73
2022/01/24 05:49:29;;;;;;;90.55;46.88;;;;;;;-9.60;100.00;100834.00;2090312;28;20298;-73
2022/01/24 05:50:31;;;;;;;83.53;44.00;;;;;;;-9.62;100.00;100835.91;2090328;28;20187;-73
2022/01/24 05:51:35;;;;;;;84.82;41.35;;;;;;;-9.62;100.00;100830.72;2089822;28;20249;-73
2022/01/24 05:52:40;;;;;;;98.55;48.05;;;;;;;-9.62;100.00;100829.91;2090194;28;20288;-73
2022/01/24 05:53:43;;;;;;;94.07;47.33;;;;;;;-9.62;100.00;100832.50;2090702;28;20195;-73
2022/01/24 05:54:48;;;;;;;92.80;44.90;;;;;;;-9.63;100.00;100833.44;2090787;28;20274;-73
2022/01/24 05:55:50;;;;;;;85.97;44.17;;;;;;;-9.63;100.00;100841.19;2090695;28;20273;-73
2022/01/24 05:56:54;;;;;;;83.70;42.20;;;;;;;-9.63;100.00;100843.78;2090666;28;20183;-73
2022/01/24 05:57:59;;;;;;;95.00;44.75;;;;;;;-9.64;100.00;100836.94;2090759;28;20194;-73
2022/01/24 05:59:01;;;;;;;87.68;44.95;;;;;;;-9.65;100.00;100841.28;2090860;28;20195;-73
2022/01/24 06:00:06;;;;;;;88.03;44.65;;;;;;;-9.64;100.00;100847.28;2090746;28;20179;-72